createdAt,value
2017-09-12T00:00:03.298Z,2.00
2017-09-12T00:02:31.629Z,1.57
2017-09-12T00:04:59.836Z,3.62
2017-09-12T00:07:27.397Z,2.20
2017-09-12T00:09:55.061Z,1.70
2017-09-12T00:12:22.820Z,2.00
2017-09-12T00:14:50.400Z,1.90
2017-09-12T00:17:18.732Z,1.60
2017-09-12T00:19:46.419Z,1.83
2017-09-12T00:22:13.989Z,1.63
2017-09-12T00:24:41.853Z,1.63
2017-09-12T00:27:09.422Z,1.93
2017-09-12T00:29:37.797Z,1.93
2017-09-12T00:32:05.740Z,2.07
2017-09-12T00:34:33.332Z,1.83
2017-09-12T00:37:01.660Z,1.50
2017-09-12T00:39:29.316Z,1.40
2017-09-12T00:41:56.882Z,1.60
2017-09-12T00:44:24.456Z,1.90
2017-09-12T00:46:52.044Z,2.07
2017-09-12T00:49:19.617Z,1.80
2017-09-12T00:51:48.084Z,1.97
2017-09-12T00:54:15.685Z,1.60
2017-09-12T00:56:45.532Z,1.98
2017-09-12T00:59:13.220Z,2.00
2017-09-12T01:01:40.785Z,1.60
2017-09-12T01:04:08.756Z,1.93
2017-09-12T01:06:36.324Z,1.67
2017-09-12T01:09:03.894Z,2.67
2017-09-12T01:11:32.360Z,1.67
2017-09-12T01:14:00.705Z,1.80
2017-09-12T01:16:28.399Z,2.13
2017-09-12T01:18:55.972Z,1.83
2017-09-12T01:21:24.309Z,1.73
2017-09-12T01:23:51.896Z,1.70
2017-09-12T01:26:19.468Z,1.70
2017-09-12T01:28:47.840Z,2.03
2017-09-12T01:31:16.908Z,2.07
2017-09-12T01:33:46.237Z,2.37
2017-09-12T01:36:13.801Z,1.83
2017-09-12T01:38:41.456Z,2.57
2017-09-12T01:41:09.201Z,1.60
2017-09-12T01:43:36.779Z,1.80
2017-09-12T01:46:04.345Z,2.53
2017-09-12T01:48:31.940Z,2.40
2017-09-12T01:50:59.500Z,1.80
2017-09-12T01:53:27.088Z,1.97
2017-09-12T01:55:54.652Z,2.35
2017-09-12T01:58:22.237Z,2.00
2017-09-12T02:00:49.796Z,2.40
2017-09-12T02:03:17.473Z,1.87
2017-09-12T02:05:46.612Z,1.87
2017-09-12T02:08:14.896Z,1.77
2017-09-12T02:10:44.816Z,2.22
2017-09-12T02:13:12.400Z,2.00
2017-09-12T02:15:39.961Z,2.00
2017-09-12T02:18:08.016Z,1.80
2017-09-12T02:20:35.612Z,1.80
2017-09-12T02:23:03.940Z,1.80
2017-09-12T02:25:31.675Z,2.10
2017-09-12T02:28:00.036Z,2.10
2017-09-12T02:30:27.597Z,1.63
2017-09-12T02:32:55.263Z,3.05
2017-09-12T02:35:22.824Z,2.20
2017-09-12T02:37:51.469Z,2.08
2017-09-12T02:40:19.032Z,2.55
2017-09-12T02:42:46.593Z,1.90
2017-09-12T02:45:14.207Z,2.13
2017-09-12T02:47:43.484Z,2.33
2017-09-12T02:50:11.068Z,2.50
2017-09-12T02:52:39.393Z,2.20
2017-09-12T02:55:06.984Z,2.50
2017-09-12T02:57:34.544Z,2.13
2017-09-12T03:00:03.643Z,2.12
2017-09-12T03:02:31.219Z,2.27
2017-09-12T03:04:59.584Z,2.30
2017-09-12T03:07:27.348Z,2.03
2017-09-12T03:09:55.673Z,2.20
2017-09-12T03:12:23.236Z,2.00
2017-09-12T03:14:51.056Z,2.20
2017-09-12T03:17:18.616Z,2.30
2017-09-12T03:19:46.172Z,2.67
2017-09-12T03:22:13.789Z,2.87
2017-09-12T03:24:41.344Z,2.90
2017-09-12T03:27:08.904Z,3.13
2017-09-12T03:29:36.516Z,2.60
2017-09-12T03:32:04.081Z,2.20
2017-09-12T03:34:31.667Z,2.90
2017-09-12T03:36:59.997Z,2.90
2017-09-12T03:39:27.591Z,2.30
2017-09-12T03:41:55.962Z,2.87
2017-09-12T03:44:24.312Z,3.03
2017-09-12T03:46:51.880Z,2.70
2017-09-12T03:49:19.576Z,2.63
2017-09-12T03:51:47.910Z,2.80
2017-09-12T03:54:15.473Z,2.60
2017-09-12T03:56:44.884Z,2.40
2017-09-12T03:59:12.565Z,2.40
2017-09-12T04:01:40.160Z,2.70
2017-09-12T04:04:08.494Z,2.35
2017-09-12T04:06:36.076Z,2.50
2017-09-12T04:09:03.632Z,1.83
2017-09-12T04:11:31.324Z,2.80
2017-09-12T04:13:58.901Z,2.50
2017-09-12T04:16:26.513Z,2.37
2017-09-12T04:18:54.073Z,2.30
2017-09-12T04:21:21.633Z,3.17
2017-09-12T04:23:49.222Z,2.62
2017-09-12T04:26:17.661Z,2.50
2017-09-12T04:28:46.036Z,2.43
2017-09-12T04:31:14.026Z,2.10
2017-09-12T04:33:44.045Z,3.10
2017-09-12T04:36:11.610Z,2.20
2017-09-12T04:38:39.669Z,2.43
2017-09-12T04:41:07.232Z,2.47
2017-09-12T04:43:34.792Z,2.27
2017-09-12T04:46:02.388Z,2.50
2017-09-12T04:48:30.715Z,3.17
2017-09-12T04:50:59.128Z,2.70
2017-09-12T04:53:27.453Z,2.50
2017-09-12T04:55:55.040Z,3.23
2017-09-12T04:58:22.616Z,2.57
2017-09-12T05:00:50.212Z,2.67
2017-09-12T05:03:17.772Z,2.70
2017-09-12T05:05:45.916Z,3.30
2017-09-12T05:08:13.508Z,2.40
2017-09-12T05:10:41.128Z,2.63
2017-09-12T05:13:09.081Z,2.50
2017-09-12T05:15:36.875Z,3.10
2017-09-12T05:18:04.432Z,3.10
2017-09-12T05:20:32.092Z,2.20
2017-09-12T05:23:00.453Z,3.30
2017-09-12T05:25:28.016Z,2.50
2017-09-12T05:27:55.600Z,2.50
2017-09-12T05:30:23.937Z,2.23
2017-09-12T05:32:51.595Z,3.17
2017-09-12T05:35:19.159Z,3.70
2017-09-12T05:37:46.969Z,2.30
2017-09-12T05:40:14.532Z,2.00
2017-09-12T05:42:44.110Z,2.30
2017-09-12T05:45:11.701Z,2.57
2017-09-12T05:47:40.037Z,2.60
2017-09-12T05:50:07.732Z,2.50
2017-09-12T05:52:35.396Z,2.27
2017-09-12T05:55:02.987Z,2.58
2017-09-12T05:57:30.548Z,2.30
2017-09-12T05:59:58.136Z,2.62
2017-09-12T06:02:25.701Z,2.80
2017-09-12T06:04:53.293Z,2.37
2017-09-12T06:07:20.859Z,2.60
2017-09-12T06:09:48.756Z,3.23
2017-09-12T06:12:16.332Z,2.13
2017-09-12T06:14:43.959Z,2.17
2017-09-12T06:17:12.324Z,1.93
2017-09-12T06:19:39.886Z,1.90
2017-09-12T06:22:09.575Z,1.90
2017-09-12T06:24:37.156Z,2.25
2017-09-12T06:27:04.716Z,2.10
2017-09-12T06:29:32.314Z,2.00
2017-09-12T06:31:59.950Z,2.10
2017-09-12T06:34:27.563Z,2.27
2017-09-12T06:36:55.169Z,2.83
2017-09-12T06:39:23.508Z,1.97
2017-09-12T06:41:51.099Z,1.70
2017-09-12T06:44:18.660Z,1.60
2017-09-12T06:46:46.460Z,1.50
2017-09-12T06:49:14.808Z,2.20
2017-09-12T06:51:43.908Z,2.37
2017-09-12T06:54:11.567Z,1.90
2017-09-12T06:56:39.230Z,2.43
2017-09-12T06:59:06.800Z,2.33
2017-09-12T07:01:35.993Z,2.03
2017-09-12T07:04:03.561Z,2.30
2017-09-12T07:06:32.217Z,2.47
2017-09-12T07:08:59.813Z,2.30
2017-09-12T07:11:28.149Z,2.20
2017-09-12T07:13:55.737Z,2.50
2017-09-12T07:16:23.301Z,2.40
2017-09-12T07:18:50.969Z,2.10
2017-09-12T07:21:18.532Z,1.90
2017-09-12T07:23:47.444Z,1.80
2017-09-12T07:26:15.777Z,2.90
2017-09-12T07:28:43.917Z,2.80
2017-09-12T07:31:11.525Z,2.40
2017-09-12T07:33:39.856Z,2.60
2017-09-12T07:36:07.444Z,2.60
2017-09-12T07:38:35.013Z,2.07
2017-09-12T07:41:02.692Z,1.90
2017-09-12T07:43:30.252Z,3.10
2017-09-12T07:45:57.857Z,2.87
2017-09-12T07:48:25.416Z,2.40
2017-09-12T07:50:53.028Z,2.23
2017-09-12T07:53:20.592Z,2.20
2017-09-12T07:55:48.161Z,2.53
2017-09-12T07:58:16.516Z,2.40
2017-09-12T08:00:45.124Z,2.40
2017-09-12T08:03:12.713Z,2.33
2017-09-12T08:05:40.277Z,2.43
2017-09-12T08:08:08.097Z,2.57
2017-09-12T08:10:35.669Z,2.23
2017-09-12T08:13:03.612Z,2.37
2017-09-12T08:15:31.192Z,2.83
2017-09-12T08:17:58.757Z,1.98
2017-09-12T08:20:26.340Z,1.80
2017-09-12T08:22:54.683Z,1.87
2017-09-12T08:25:22.269Z,2.37
2017-09-12T08:27:50.600Z,1.90
2017-09-12T08:30:18.193Z,2.10
2017-09-12T08:32:45.963Z,1.97
2017-09-12T08:35:13.548Z,2.10
2017-09-12T08:37:41.899Z,1.77
2017-09-12T08:40:09.505Z,2.20
2017-09-12T08:42:37.064Z,3.00
2017-09-12T08:45:04.631Z,2.10
2017-09-12T08:47:32.220Z,1.93
2017-09-12T08:49:59.804Z,1.90
2017-09-12T08:52:27.390Z,2.07
2017-09-12T08:54:55.731Z,2.35
2017-09-12T08:57:23.336Z,1.93
2017-09-12T08:59:51.684Z,2.00
2017-09-12T09:02:20.032Z,2.40
2017-09-12T09:04:47.596Z,2.10
2017-09-12T09:07:15.303Z,2.50
2017-09-12T09:09:43.060Z,2.10
2017-09-12T09:12:10.666Z,2.70
2017-09-12T09:14:38.241Z,2.03
2017-09-12T09:17:05.806Z,1.83
2017-09-12T09:19:33.493Z,2.00
2017-09-12T09:22:01.860Z,2.00
2017-09-12T09:24:29.536Z,2.30
2017-09-12T09:26:57.099Z,2.00
2017-09-12T09:29:24.690Z,1.33
2017-09-12T09:31:53.040Z,1.70
2017-09-12T09:34:21.416Z,1.93
2017-09-12T09:36:48.981Z,1.60
2017-09-12T09:39:17.308Z,1.53
2017-09-12T09:41:46.153Z,1.70
2017-09-12T09:44:13.808Z,1.67
2017-09-12T09:46:41.467Z,1.40
2017-09-12T09:49:09.028Z,1.30
2017-09-12T09:51:36.615Z,2.23
2017-09-12T09:54:04.948Z,1.47
2017-09-12T09:56:32.540Z,1.40
2017-09-12T09:59:00.104Z,1.90
2017-09-12T10:01:28.466Z,1.60
2017-09-12T10:03:57.541Z,1.80
2017-09-12T10:06:25.234Z,1.43
2017-09-12T10:08:52.801Z,1.42
2017-09-12T10:11:21.276Z,1.97
2017-09-12T10:13:48.946Z,1.45
2017-09-12T10:16:17.277Z,1.40
2017-09-12T10:18:44.976Z,1.60
2017-09-12T10:21:14.049Z,1.30
2017-09-12T10:23:41.633Z,1.20
2017-09-12T10:26:09.192Z,1.27
2017-09-12T10:28:36.856Z,1.63
2017-09-12T10:31:04.857Z,1.50
2017-09-12T10:33:33.212Z,1.10
2017-09-12T10:36:00.784Z,1.20
2017-09-12T10:38:29.135Z,1.57
2017-09-12T10:40:56.705Z,1.40
2017-09-12T10:43:24.269Z,1.47
2017-09-12T10:45:51.877Z,1.25
2017-09-12T10:48:19.488Z,1.00
2017-09-12T10:50:47.836Z,1.20
2017-09-12T10:53:15.717Z,0.90
2017-09-12T10:55:44.969Z,1.10
2017-09-12T10:58:13.296Z,1.10
2017-09-12T11:00:40.880Z,1.13
2017-09-12T11:03:08.449Z,1.03
2017-09-12T11:05:36.920Z,1.13
2017-09-12T11:08:04.586Z,1.20
2017-09-12T11:10:33.652Z,1.10
2017-09-12T11:13:01.232Z,1.30
2017-09-12T11:15:29.560Z,1.10
2017-09-12T11:17:57.176Z,0.90
2017-09-12T11:20:24.739Z,1.30
2017-09-12T11:22:52.336Z,1.15
2017-09-12T11:25:19.957Z,1.17
2017-09-12T11:27:47.564Z,0.80
2017-09-12T11:30:15.132Z,0.70
2017-09-12T11:32:44.856Z,1.00
2017-09-12T11:35:12.440Z,1.00
2017-09-12T11:37:40.004Z,0.80
2017-09-12T11:40:07.676Z,0.90
2017-09-12T11:42:35.249Z,1.10
2017-09-12T11:45:03.600Z,1.10
2017-09-12T11:47:32.001Z,1.10
2017-09-12T11:49:59.604Z,1.45
2017-09-12T11:52:27.216Z,0.90
2017-09-12T11:54:54.879Z,1.70
2017-09-12T11:57:22.474Z,1.20
2017-09-12T11:59:50.805Z,1.10
2017-09-12T12:02:18.389Z,1.07
2017-09-12T12:04:45.956Z,0.87
2017-09-12T12:07:14.311Z,1.50
2017-09-12T12:09:41.873Z,1.27
2017-09-12T12:12:09.455Z,1.10
2017-09-12T12:14:37.785Z,1.10
2017-09-12T12:17:05.401Z,1.30
2017-09-12T12:19:33.765Z,0.90
2017-09-12T12:22:02.147Z,1.17
2017-09-12T12:24:29.800Z,1.27
2017-09-12T12:26:57.464Z,1.40
2017-09-12T12:29:25.128Z,1.47
2017-09-12T12:31:54.204Z,1.63
2017-09-12T12:34:21.820Z,1.50
2017-09-12T12:36:49.451Z,1.70
2017-09-12T12:39:17.117Z,1.47
2017-09-12T12:41:45.713Z,1.20
2017-09-12T12:44:14.072Z,1.20
2017-09-12T12:46:41.654Z,1.60
2017-09-12T12:49:09.989Z,1.20
2017-09-12T12:51:37.581Z,2.17
2017-09-12T12:54:05.149Z,1.63
2017-09-12T12:56:33.519Z,1.30
2017-09-12T12:59:01.080Z,1.58
2017-09-12T13:01:28.736Z,1.90
2017-09-12T13:03:56.299Z,1.52
2017-09-12T13:06:25.394Z,1.67
2017-09-12T13:08:53.060Z,1.58
2017-09-12T13:11:20.661Z,1.80
2017-09-12T13:13:48.224Z,1.50
2017-09-12T13:16:15.797Z,1.58
2017-09-12T13:18:44.824Z,1.25
2017-09-12T13:21:12.387Z,1.80
2017-09-12T13:23:39.980Z,1.57
2017-09-12T13:26:08.308Z,1.50
2017-09-12T13:28:35.991Z,1.40
2017-09-12T13:31:03.667Z,1.70
2017-09-12T13:33:31.318Z,1.13
2017-09-12T13:35:59.700Z,1.40
2017-09-12T13:38:27.381Z,1.60
2017-09-12T13:40:55.732Z,1.47
2017-09-12T13:43:23.297Z,1.40
2017-09-12T13:45:50.904Z,1.43
2017-09-12T13:48:18.482Z,1.30
2017-09-12T13:50:46.046Z,1.50
2017-09-12T13:53:13.784Z,1.43
2017-09-12T13:55:41.343Z,1.30
2017-09-12T13:58:08.908Z,1.60
2017-09-12T14:00:36.533Z,1.50
2017-09-12T14:03:04.200Z,1.40
2017-09-12T14:05:31.772Z,1.67
2017-09-12T14:08:00.444Z,1.60
2017-09-12T14:10:28.009Z,1.57
2017-09-12T14:12:55.597Z,1.35
2017-09-12T14:15:23.224Z,1.33
2017-09-12T14:17:51.258Z,1.20
2017-09-12T14:20:18.858Z,1.50
2017-09-12T14:22:46.429Z,1.30
2017-09-12T14:25:14.800Z,1.40
2017-09-12T14:27:44.673Z,1.70
2017-09-12T14:30:12.272Z,1.50
2017-09-12T14:32:39.834Z,1.30
2017-09-12T14:35:07.604Z,1.50
2017-09-12T14:37:35.169Z,2.03
2017-09-12T14:40:03.504Z,1.83
2017-09-12T14:42:31.105Z,2.10
2017-09-12T14:44:58.685Z,1.80
2017-09-12T14:47:27.026Z,1.60
2017-09-12T14:49:55.009Z,1.80
2017-09-12T14:52:22.668Z,1.73
2017-09-12T14:54:50.232Z,1.90
2017-09-12T14:57:17.816Z,1.70
2017-09-12T14:59:45.677Z,1.70
2017-09-12T15:02:14.240Z,1.90
2017-09-12T15:04:41.806Z,1.90
2017-09-12T15:07:09.376Z,1.53
2017-09-12T15:09:38.032Z,1.80
2017-09-12T15:12:05.604Z,2.10
2017-09-12T15:14:34.800Z,2.00
2017-09-12T15:17:03.136Z,1.58
2017-09-12T15:19:30.736Z,1.90
2017-09-12T15:21:58.300Z,1.67
2017-09-12T15:24:26.157Z,1.30
2017-09-12T15:26:54.124Z,1.83
2017-09-12T15:29:21.711Z,1.50
2017-09-12T15:31:49.377Z,1.70
2017-09-12T15:34:16.980Z,1.80
2017-09-12T15:36:46.721Z,1.65
2017-09-12T15:39:14.280Z,1.73
2017-09-12T15:41:41.964Z,1.50
2017-09-12T15:44:09.528Z,1.90
2017-09-12T15:46:38.189Z,1.90
2017-09-12T15:49:05.752Z,1.50
2017-09-12T15:51:33.320Z,1.53
2017-09-12T15:54:00.912Z,1.90
2017-09-12T15:56:29.272Z,1.50
2017-09-12T15:58:56.864Z,1.80
2017-09-12T16:01:25.221Z,1.60
2017-09-12T16:03:52.880Z,1.67
2017-09-12T16:06:20.448Z,1.60
2017-09-12T16:08:49.020Z,2.15
2017-09-12T16:11:16.581Z,1.73
2017-09-12T16:13:46.668Z,1.92
2017-09-12T16:16:14.252Z,1.90
2017-09-12T16:18:41.816Z,1.97
2017-09-12T16:21:09.429Z,2.17
2017-09-12T16:23:36.993Z,1.60
2017-09-12T16:26:04.603Z,1.80
2017-09-12T16:28:32.268Z,1.83
2017-09-12T16:30:59.933Z,2.10
2017-09-12T16:33:27.588Z,2.30
2017-09-12T16:35:55.257Z,2.07
2017-09-12T16:38:23.646Z,2.25
2017-09-12T16:40:52.228Z,2.10
2017-09-12T16:43:19.801Z,1.57
2017-09-12T16:45:48.132Z,1.97
2017-09-12T16:48:15.733Z,2.10
2017-09-12T16:50:44.928Z,1.60
2017-09-12T16:53:13.303Z,2.20
2017-09-12T16:55:40.868Z,2.20
2017-09-12T16:58:08.516Z,2.10
2017-09-12T17:00:36.105Z,2.47
2017-09-12T17:03:04.443Z,2.40
2017-09-12T17:05:32.047Z,2.42
2017-09-12T17:08:00.381Z,2.35
2017-09-12T17:10:27.976Z,2.40
2017-09-12T17:12:56.309Z,2.20
2017-09-12T17:15:24.212Z,2.30
2017-09-12T17:17:51.778Z,1.70
2017-09-12T17:20:20.142Z,2.10
2017-09-12T17:22:47.712Z,2.30
2017-09-12T17:25:15.328Z,2.07
2017-09-12T17:27:43.089Z,2.20
2017-09-12T17:30:10.654Z,1.70
2017-09-12T17:32:38.252Z,2.27
2017-09-12T17:35:05.921Z,2.03
2017-09-12T17:37:33.496Z,2.90
2017-09-12T17:40:01.877Z,2.55
2017-09-12T17:42:30.204Z,2.33
2017-09-12T17:44:57.800Z,2.30
2017-09-12T17:47:26.172Z,2.00
2017-09-12T17:49:53.848Z,1.87
2017-09-12T17:52:21.414Z,1.83
2017-09-12T17:54:49.782Z,2.03
2017-09-12T17:57:17.449Z,2.43
2017-09-12T17:59:45.731Z,2.30
2017-09-12T18:02:14.069Z,2.00
2017-09-12T18:04:41.656Z,2.40
2017-09-12T18:07:09.588Z,2.30
2017-09-12T18:09:38.260Z,2.30
2017-09-12T18:12:05.834Z,2.10
2017-09-12T18:14:33.405Z,2.30
2017-09-12T18:17:01.096Z,2.42
2017-09-12T18:19:28.655Z,2.47
2017-09-12T18:21:56.420Z,2.08
2017-09-12T18:24:23.992Z,2.20
2017-09-12T18:26:51.561Z,1.77
2017-09-12T18:29:19.921Z,2.23
2017-09-12T18:31:47.488Z,2.30
2017-09-12T18:34:15.081Z,1.90
2017-09-12T18:36:43.835Z,2.80
2017-09-12T18:39:11.424Z,1.97
2017-09-12T18:41:39.778Z,2.00
2017-09-12T18:44:07.369Z,2.00
2017-09-12T18:46:34.950Z,2.13
2017-09-12T18:49:02.588Z,1.60
2017-09-12T18:51:30.216Z,1.80
2017-09-12T18:53:57.779Z,1.87
2017-09-12T18:56:25.625Z,1.80
2017-09-12T18:58:53.196Z,1.60
2017-09-12T19:01:20.867Z,2.10
2017-09-12T19:03:49.944Z,2.50
2017-09-12T19:06:17.508Z,1.70
2017-09-12T19:08:46.479Z,2.20
2017-09-12T19:11:14.046Z,1.93
2017-09-12T19:13:41.608Z,1.90
2017-09-12T19:16:09.204Z,2.20
2017-09-12T19:18:40.749Z,2.33
2017-09-12T19:21:09.116Z,2.10
2017-09-12T19:23:36.978Z,1.80
2017-09-12T19:26:04.544Z,2.10
2017-09-12T19:28:32.164Z,2.07
2017-09-12T19:30:59.725Z,2.30
2017-09-12T19:33:27.292Z,2.13
2017-09-12T19:35:54.884Z,2.00
2017-09-12T19:38:22.445Z,2.10
2017-09-12T19:40:50.033Z,2.33
2017-09-12T19:43:17.600Z,3.10
2017-09-12T19:45:45.857Z,2.60
2017-09-12T19:48:13.432Z,2.57
2017-09-12T19:50:41.015Z,2.60
2017-09-12T19:53:09.360Z,2.60
2017-09-12T19:55:37.077Z,2.40
2017-09-12T19:58:04.640Z,2.97
2017-09-12T20:00:32.341Z,2.40
2017-09-12T20:02:59.912Z,2.00
2017-09-12T20:05:27.504Z,2.03
2017-09-12T20:07:55.078Z,1.90
2017-09-12T20:10:22.692Z,2.00
2017-09-12T20:12:50.280Z,1.57
2017-09-12T20:15:18.696Z,1.90
2017-09-12T20:17:46.304Z,1.97
2017-09-12T20:20:13.869Z,1.67
2017-09-12T20:22:43.540Z,1.63
2017-09-12T20:25:11.108Z,1.87
2017-09-12T20:27:38.668Z,1.63
2017-09-12T20:30:06.262Z,1.57
2017-09-12T20:32:34.601Z,1.50
2017-09-12T20:35:02.297Z,1.45
2017-09-12T20:37:29.860Z,1.73
2017-09-12T20:39:57.452Z,1.40
2017-09-12T20:42:25.013Z,1.23
2017-09-12T20:44:52.604Z,1.55
2017-09-12T20:47:20.172Z,1.70
2017-09-12T20:49:47.737Z,1.50
2017-09-12T20:52:15.472Z,1.70
2017-09-12T20:54:43.870Z,1.52
2017-09-12T20:57:11.430Z,1.60
2017-09-12T20:59:39.225Z,1.53
2017-09-12T21:02:06.805Z,1.80
2017-09-12T21:04:35.140Z,1.50
2017-09-12T21:07:02.734Z,1.95
2017-09-12T21:09:30.687Z,1.50
2017-09-12T21:11:58.511Z,1.90
2017-09-12T21:14:26.068Z,1.33
2017-09-12T21:16:53.624Z,1.57
2017-09-12T21:19:21.448Z,1.50
2017-09-12T21:21:49.021Z,1.73
2017-09-12T21:24:17.345Z,1.30
2017-09-12T21:26:45.796Z,1.27
2017-09-12T21:29:14.145Z,1.53
2017-09-12T21:31:41.704Z,1.70
2017-09-12T21:34:09.285Z,1.67
2017-09-12T21:36:37.614Z,2.17
2017-09-12T21:39:05.201Z,1.43
2017-09-12T21:41:32.761Z,1.57
2017-09-12T21:44:00.349Z,1.90
2017-09-12T21:46:28.674Z,1.50
2017-09-12T21:48:56.259Z,1.63
2017-09-12T21:51:23.928Z,1.60
2017-09-12T21:53:51.696Z,2.33
2017-09-12T21:56:19.257Z,2.10
2017-09-12T21:58:46.811Z,1.90
2017-09-12T22:01:14.417Z,1.73
2017-09-12T22:03:42.927Z,2.12
2017-09-12T22:06:10.486Z,2.10
2017-09-12T22:08:38.068Z,2.30
2017-09-12T22:11:05.636Z,2.27
2017-09-12T22:13:34.120Z,2.40
2017-09-12T22:16:01.684Z,1.77
2017-09-12T22:18:30.012Z,2.43
2017-09-12T22:20:57.604Z,2.10
2017-09-12T22:23:25.180Z,2.27
2017-09-12T22:25:52.740Z,2.40
2017-09-12T22:28:20.588Z,2.20
2017-09-12T22:30:48.165Z,2.50
2017-09-12T22:33:15.837Z,2.30
2017-09-12T22:35:44.933Z,2.05
2017-09-12T22:38:12.777Z,2.47
2017-09-12T22:40:40.351Z,2.63
2017-09-12T22:43:07.937Z,2.25
2017-09-12T22:45:36.297Z,2.30
2017-09-12T22:48:03.893Z,2.60
2017-09-12T22:50:31.452Z,2.60
2017-09-12T22:52:59.012Z,1.90
2017-09-12T22:55:26.597Z,2.70
2017-09-12T22:57:54.157Z,1.93
2017-09-12T23:00:21.760Z,2.50
2017-09-12T23:02:49.321Z,2.65
2017-09-12T23:05:17.856Z,2.23
2017-09-12T23:07:46.694Z,2.40
2017-09-12T23:10:15.040Z,2.40
2017-09-12T23:12:44.744Z,2.58
2017-09-12T23:15:12.344Z,2.67
2017-09-12T23:17:39.904Z,2.10
2017-09-12T23:20:07.465Z,2.40
2017-09-12T23:22:35.065Z,2.60
2017-09-12T23:25:02.623Z,2.45
2017-09-12T23:27:30.183Z,2.57
2017-09-12T23:29:57.908Z,2.63
2017-09-12T23:32:25.468Z,2.80
2017-09-12T23:34:53.028Z,2.30
2017-09-12T23:37:21.375Z,2.10
2017-09-12T23:39:48.932Z,2.35
2017-09-12T23:42:16.519Z,2.90
2017-09-12T23:44:44.991Z,2.50
2017-09-12T23:47:12.559Z,3.33
2017-09-12T23:49:40.421Z,2.80
2017-09-12T23:52:07.984Z,2.60
2017-09-12T23:54:35.544Z,3.03
2017-09-12T23:57:03.235Z,2.73
2017-09-12T23:59:30.795Z,2.07
